createdAt,value
2022-08-25T00:00:53.174Z,98924.17
2022-08-25T00:01:58.904Z,98924.15
2022-08-25T00:03:00.610Z,98925.25
2022-08-25T00:04:05.550Z,98927.48
2022-08-25T00:05:07.667Z,98922.13
2022-08-25T00:06:11.838Z,98925.25
2022-08-25T00:07:13.530Z,98925.80
2022-08-25T00:08:20.491Z,98925.88
2022-08-25T00:09:27.790Z,98926.30
2022-08-25T00:10:29.873Z,98926.02
2022-08-25T00:11:34.271Z,98920.61
2022-08-25T00:12:36.022Z,98915.63
2022-08-25T00:13:41.098Z,98917.85
2022-08-25T00:14:43.472Z,98915.82
2022-08-25T00:15:46.674Z,98920.99
2022-08-25T00:16:49.115Z,98922.70
2022-08-25T00:17:51.603Z,98925.50
2022-08-25T00:18:56.775Z,98924.05
2022-08-25T00:19:58.452Z,98923.98
2022-08-25T00:21:00.115Z,98914.41
2022-08-25T00:22:03.235Z,98921.17
2022-08-25T00:23:05.013Z,98917.56
2022-08-25T00:24:11.929Z,98910.55
2022-08-25T00:25:13.686Z,98911.34
2022-08-25T00:26:15.952Z,98911.34
2022-08-25T00:27:18.076Z,98908.19
2022-08-25T00:28:19.751Z,98911.38
2022-08-25T00:29:23.621Z,98913.45
2022-08-25T00:30:25.500Z,98913.48
2022-08-25T00:31:37.787Z,98919.61
2022-08-25T00:32:40.848Z,98916.80
2022-08-25T00:33:44.820Z,98910.30
2022-08-25T00:34:46.836Z,98915.64
2022-08-25T00:35:48.557Z,98917.20
2022-08-25T00:36:51.874Z,98916.04
2022-08-25T00:37:53.596Z,98916.76
2022-08-25T00:38:56.268Z,98919.89
2022-08-25T00:39:58.643Z,98913.92
2022-08-25T00:41:06.236Z,98918.70
2022-08-25T00:42:15.054Z,98919.08
2022-08-25T00:43:18.761Z,98920.39
2022-08-25T00:44:20.985Z,98923.23
2022-08-25T00:45:23.388Z,98923.27
2022-08-25T00:46:32.920Z,98926.13
2022-08-25T00:47:34.978Z,98925.45
2022-08-25T00:48:42.248Z,98922.63
2022-08-25T00:49:49.662Z,98924.90
2022-08-25T00:50:51.407Z,98917.90
2022-08-25T00:52:05.990Z,98911.48
2022-08-25T00:53:08.742Z,98906.00
2022-08-25T00:54:23.410Z,98905.98
2022-08-25T00:55:33.953Z,98905.93
2022-08-25T00:56:36.601Z,98906.73
2022-08-25T00:57:55.393Z,98907.94
2022-08-25T00:58:59.273Z,98906.75
2022-08-25T01:00:05.583Z,98903.95
2022-08-25T01:01:07.759Z,98907.04
2022-08-25T01:02:10.231Z,98903.00
2022-08-25T01:03:17.422Z,98905.06
2022-08-25T01:04:19.838Z,98900.27
2022-08-25T01:05:21.604Z,98897.25
2022-08-25T01:06:23.924Z,98896.38
2022-08-25T01:07:25.766Z,98895.98
2022-08-25T01:08:32.324Z,98896.40
2022-08-25T01:09:35.285Z,98896.86
2022-08-25T01:10:41.367Z,98891.96
2022-08-25T01:11:45.506Z,98894.13
2022-08-25T01:12:47.464Z,98892.17
2022-08-25T01:13:56.492Z,98894.26
2022-08-25T01:14:59.015Z,98895.83
2022-08-25T01:16:02.011Z,98898.59
2022-08-25T01:17:04.454Z,98892.61
2022-08-25T01:18:06.359Z,98890.82
2022-08-25T01:19:09.365Z,98889.95
2022-08-25T01:20:19.900Z,98890.89
2022-08-25T01:21:24.302Z,98891.33
2022-08-25T01:22:26.771Z,98886.81
2022-08-25T01:23:28.483Z,98887.19
2022-08-25T01:24:47.154Z,98887.84
2022-08-25T01:26:11.242Z,98888.70
2022-08-25T01:27:13.444Z,98891.51
2022-08-25T01:28:16.626Z,98889.94
2022-08-25T01:29:20.977Z,98891.58
2022-08-25T01:30:24.517Z,98891.25
2022-08-25T01:31:28.081Z,98894.96
2022-08-25T01:32:34.850Z,98889.09
2022-08-25T01:33:36.504Z,98889.21
2022-08-25T01:34:42.008Z,98891.53
2022-08-25T01:35:44.081Z,98892.80
2022-08-25T01:36:45.997Z,98891.61
2022-08-25T01:37:48.246Z,98890.20
2022-08-25T01:38:50.557Z,98892.79
2022-08-25T01:39:52.239Z,98892.86
2022-08-25T01:40:53.948Z,98894.67
2022-08-25T01:41:58.701Z,98893.77
2022-08-25T01:43:18.214Z,98897.14
2022-08-25T01:44:19.953Z,98890.38
2022-08-25T01:45:21.809Z,98888.33
2022-08-25T01:46:23.603Z,98891.44
2022-08-25T01:47:25.647Z,98888.64
2022-08-25T01:48:27.325Z,98886.60
2022-08-25T01:49:28.961Z,98887.73
2022-08-25T01:50:30.817Z,98886.46
2022-08-25T01:51:46.971Z,98889.54
2022-08-25T01:52:51.852Z,98886.31
2022-08-25T01:53:53.498Z,98889.18
2022-08-25T01:54:55.542Z,98891.73
2022-08-25T01:56:05.555Z,98892.83
2022-08-25T01:57:11.509Z,98893.86
2022-08-25T01:58:13.171Z,98892.55
2022-08-25T01:59:23.843Z,98892.69
2022-08-25T02:00:26.138Z,98895.92
2022-08-25T02:01:28.573Z,98894.00
2022-08-25T02:02:31.621Z,98894.77
2022-08-25T02:03:42.375Z,98897.71
2022-08-25T02:04:44.436Z,98896.42
2022-08-25T02:05:48.070Z,98895.91
2022-08-25T02:06:50.411Z,98893.42
2022-08-25T02:07:52.146Z,98897.46
2022-08-25T02:08:58.408Z,98894.91
2022-08-25T02:10:00.694Z,98893.02
2022-08-25T02:11:05.549Z,98893.65
2022-08-25T02:12:09.530Z,98893.52
2022-08-25T02:13:11.258Z,98891.33
2022-08-25T02:14:18.092Z,98896.09
2022-08-25T02:15:19.961Z,98897.00
2022-08-25T02:16:28.327Z,98898.20
2022-08-25T02:17:30.136Z,98899.13
2022-08-25T02:18:31.895Z,98898.90
2022-08-25T02:19:33.937Z,98900.41
2022-08-25T02:20:35.655Z,98897.30
2022-08-25T02:21:37.983Z,98896.55
2022-08-25T02:22:39.680Z,98900.08
2022-08-25T02:23:45.319Z,98897.48
2022-08-25T02:24:48.033Z,98897.90
2022-08-25T02:25:49.816Z,98890.51
2022-08-25T02:26:51.605Z,98891.11
2022-08-25T02:27:53.852Z,98891.92
2022-08-25T02:28:56.288Z,98890.31
2022-08-25T02:29:57.998Z,98893.63
2022-08-25T02:31:01.635Z,98891.18
2022-08-25T02:32:04.147Z,98890.70
2022-08-25T02:33:06.490Z,98886.00
2022-08-25T02:34:10.254Z,98884.45
2022-08-25T02:35:12.837Z,98885.80
2022-08-25T02:36:14.921Z,98887.30
2022-08-25T02:37:17.023Z,98882.50
2022-08-25T02:38:18.870Z,98882.95
2022-08-25T02:39:20.581Z,98881.27
2022-08-25T02:40:22.803Z,98885.70
2022-08-25T02:41:31.087Z,98887.33
2022-08-25T02:42:33.806Z,98889.20
2022-08-25T02:43:35.537Z,98885.60
2022-08-25T02:44:37.279Z,98883.50
2022-08-25T02:45:39.291Z,98885.52
2022-08-25T02:46:41.036Z,98883.77
2022-08-25T02:47:42.994Z,98887.74
2022-08-25T02:48:45.182Z,98884.76
2022-08-25T02:49:46.852Z,98886.42
2022-08-25T02:50:51.625Z,98886.49
2022-08-25T02:51:54.521Z,98885.95
2022-08-25T02:52:56.209Z,98883.27
2022-08-25T02:54:00.080Z,98885.63
2022-08-25T02:55:09.246Z,98884.49
2022-08-25T02:56:12.659Z,98881.42
2022-08-25T02:57:15.835Z,98882.63
2022-08-25T02:58:17.521Z,98886.69
2022-08-25T02:59:19.542Z,98885.37
2022-08-25T03:00:21.510Z,98886.33
2022-08-25T03:01:28.448Z,98886.48
2022-08-25T03:02:30.810Z,98884.20
2022-08-25T03:03:37.524Z,98886.04
2022-08-25T03:04:41.086Z,98884.76
2022-08-25T03:05:43.489Z,98891.41
2022-08-25T03:06:45.760Z,98887.65
2022-08-25T03:07:47.518Z,98885.38
2022-08-25T03:08:50.562Z,98889.68
2022-08-25T03:09:52.254Z,98895.48
2022-08-25T03:10:53.998Z,98894.48
2022-08-25T03:11:55.662Z,98892.42
2022-08-25T03:12:57.737Z,98895.39
2022-08-25T03:13:59.373Z,98895.92
2022-08-25T03:15:01.634Z,98898.77
2022-08-25T03:16:10.885Z,98895.17
2022-08-25T03:17:13.254Z,98896.05
2022-08-25T03:18:15.592Z,98890.80
2022-08-25T03:19:18.091Z,98890.25
2022-08-25T03:20:21.366Z,98894.16
2022-08-25T03:21:23.132Z,98892.34
2022-08-25T03:22:24.875Z,98895.04
2022-08-25T03:23:29.665Z,98894.86
2022-08-25T03:24:31.777Z,98895.00
2022-08-25T03:25:52.579Z,98893.45
2022-08-25T03:26:56.438Z,98894.64
2022-08-25T03:27:58.289Z,98893.92
2022-08-25T03:29:05.013Z,98896.21
2022-08-25T03:30:07.609Z,98893.20
2022-08-25T03:31:10.506Z,98890.33
2022-08-25T03:32:12.239Z,98886.59
2022-08-25T03:33:14.426Z,98890.19
2022-08-25T03:34:17.971Z,98891.61
2022-08-25T03:35:20.028Z,98891.95
2022-08-25T03:36:22.050Z,98892.06
2022-08-25T03:37:23.677Z,98890.42
2022-08-25T03:38:26.121Z,98893.04
2022-08-25T03:39:28.940Z,98891.71
2022-08-25T03:40:30.799Z,98894.06
2022-08-25T03:41:32.806Z,98894.38
2022-08-25T03:42:35.094Z,98895.31
2022-08-25T03:43:36.740Z,98894.70
2022-08-25T03:44:38.377Z,98894.41
2022-08-25T03:45:42.842Z,98897.50
2022-08-25T03:46:47.711Z,98896.16
2022-08-25T03:47:51.119Z,98894.54
2022-08-25T03:48:53.869Z,98895.29
2022-08-25T03:49:56.280Z,98894.02
2022-08-25T03:50:58.000Z,98894.17
2022-08-25T03:51:59.672Z,98895.43
2022-08-25T03:53:02.341Z,98894.37
2022-08-25T03:54:05.344Z,98899.01
2022-08-25T03:55:11.689Z,98896.91
2022-08-25T03:56:13.460Z,98896.02
2022-08-25T03:57:15.876Z,98894.69
2022-08-25T03:58:18.148Z,98893.27
2022-08-25T03:59:20.281Z,98896.27
2022-08-25T04:00:23.682Z,98895.71
2022-08-25T04:01:26.061Z,98894.63
2022-08-25T04:02:27.991Z,98891.70
2022-08-25T04:03:29.713Z,98893.31
2022-08-25T04:04:31.862Z,98898.36
2022-08-25T04:05:33.665Z,98892.46
2022-08-25T04:06:38.206Z,98892.54
2022-08-25T04:07:40.222Z,98893.44
2022-08-25T04:08:42.278Z,98894.14
2022-08-25T04:09:44.137Z,98891.93
2022-08-25T04:10:45.827Z,98892.71
2022-08-25T04:11:47.669Z,98890.29
2022-08-25T04:12:56.010Z,98892.20
2022-08-25T04:13:59.194Z,98894.00
2022-08-25T04:15:01.224Z,98891.17
2022-08-25T04:16:10.240Z,98892.61
2022-08-25T04:17:11.989Z,98890.67
2022-08-25T04:18:14.191Z,98890.80
2022-08-25T04:19:16.011Z,98891.73
2022-08-25T04:20:18.865Z,98892.02
2022-08-25T04:21:22.130Z,98892.96
2022-08-25T04:22:24.205Z,98891.12
2022-08-25T04:23:25.881Z,98895.21
2022-08-25T04:24:27.578Z,98889.34
2022-08-25T04:25:29.856Z,98890.95
2022-08-25T04:26:36.410Z,98890.17
2022-08-25T04:27:38.092Z,98886.59
2022-08-25T04:28:40.020Z,98892.41
2022-08-25T04:29:41.694Z,98892.64
2022-08-25T04:30:43.802Z,98894.80
2022-08-25T04:31:48.695Z,98890.77
2022-08-25T04:32:50.953Z,98892.59
2022-08-25T04:33:52.997Z,98892.05
2022-08-25T04:34:54.694Z,98893.24
2022-08-25T04:35:56.414Z,98900.11
2022-08-25T04:37:03.590Z,98892.99
2022-08-25T04:38:05.870Z,98896.33
2022-08-25T04:39:07.988Z,98900.30
2022-08-25T04:40:11.001Z,98903.73
2022-08-25T04:41:15.495Z,98897.79
2022-08-25T04:42:17.194Z,98901.03
2022-08-25T04:43:18.833Z,98893.22
2022-08-25T04:44:20.505Z,98894.54
2022-08-25T04:45:22.151Z,98892.26
2022-08-25T04:46:28.625Z,98891.42
2022-08-25T04:47:31.294Z,98891.40
2022-08-25T04:48:33.707Z,98892.48
2022-08-25T04:49:37.092Z,98889.13
2022-08-25T04:50:39.850Z,98890.00
2022-08-25T04:51:42.748Z,98890.20
2022-08-25T04:52:44.493Z,98887.36
2022-08-25T04:53:46.968Z,98890.58
2022-08-25T04:54:48.624Z,98889.09
2022-08-25T04:55:50.331Z,98889.28
2022-08-25T04:56:54.603Z,98888.70
2022-08-25T04:57:59.645Z,98886.33
2022-08-25T04:59:05.765Z,98892.89
2022-08-25T05:00:08.176Z,98891.66
2022-08-25T05:01:15.867Z,98885.33
2022-08-25T05:02:17.668Z,98890.45
2022-08-25T05:03:19.337Z,98890.04
2022-08-25T05:04:28.590Z,98885.85
2022-08-25T05:05:32.669Z,98887.33
2022-08-25T05:06:35.708Z,98887.59
2022-08-25T05:07:37.342Z,98887.81
2022-08-25T05:08:40.021Z,98888.13
2022-08-25T05:09:41.877Z,98884.61
2022-08-25T05:10:43.874Z,98886.00
2022-08-25T05:11:45.665Z,98889.21
2022-08-25T05:12:49.163Z,98889.20
2022-08-25T05:13:52.933Z,98884.98
2022-08-25T05:14:54.770Z,98886.16
2022-08-25T05:16:00.280Z,98882.09
2022-08-25T05:17:02.192Z,98881.02
2022-08-25T05:18:04.732Z,98879.54
2022-08-25T05:19:07.281Z,98881.63
2022-08-25T05:20:09.434Z,98882.73
2022-08-25T05:21:15.409Z,98882.47
2022-08-25T05:22:17.198Z,98881.63
2022-08-25T05:23:18.986Z,98882.15
2022-08-25T05:24:22.053Z,98880.14
2022-08-25T05:25:24.480Z,98878.13
2022-08-25T05:26:30.742Z,98879.48
2022-08-25T05:27:34.285Z,98874.90
2022-08-25T05:28:35.937Z,98875.66
2022-08-25T05:29:37.587Z,98876.63
2022-08-25T05:30:41.282Z,98878.25
2022-08-25T05:31:48.343Z,98877.77
2022-08-25T05:32:52.329Z,98878.31
2022-08-25T05:33:56.025Z,98875.37
2022-08-25T05:34:57.694Z,98874.83
2022-08-25T05:35:59.660Z,98874.38
2022-08-25T05:37:03.315Z,98876.05
2022-08-25T05:38:06.405Z,98873.66
2022-08-25T05:39:08.155Z,98875.50
2022-08-25T05:40:10.292Z,98876.37
2022-08-25T05:41:17.997Z,98877.05
2022-08-25T05:42:19.841Z,98877.63
2022-08-25T05:43:21.551Z,98878.44
2022-08-25T05:44:23.267Z,98881.17
2022-08-25T05:45:25.095Z,98881.83
2022-08-25T05:46:26.946Z,98884.35
2022-08-25T05:47:28.638Z,98885.00
2022-08-25T05:48:30.308Z,98884.80
2022-08-25T05:49:31.964Z,98887.17
2022-08-25T05:50:33.634Z,98889.49
2022-08-25T05:51:35.365Z,98891.64
2022-08-25T05:52:37.202Z,98890.11
2022-08-25T05:53:42.226Z,98890.47
2022-08-25T05:54:44.170Z,98888.45
2022-08-25T05:55:45.990Z,98888.37
2022-08-25T05:56:47.758Z,98889.53
2022-08-25T05:57:49.775Z,98890.83
2022-08-25T05:58:51.462Z,98888.01
2022-08-25T05:59:53.246Z,98887.84
2022-08-25T06:00:56.036Z,98885.97
2022-08-25T06:02:16.478Z,98886.91
2022-08-25T06:03:18.624Z,98887.55
2022-08-25T06:04:22.457Z,98890.31
2022-08-25T06:05:24.148Z,98887.50
2022-08-25T06:06:26.257Z,98888.69
2022-08-25T06:07:28.307Z,98892.88
2022-08-25T06:08:33.576Z,98890.10
2022-08-25T06:09:38.697Z,98893.33
2022-08-25T06:10:40.362Z,98893.38
2022-08-25T06:11:42.842Z,98890.84
2022-08-25T06:12:46.165Z,98888.61
2022-08-25T06:13:48.157Z,98886.47
2022-08-25T06:14:50.017Z,98886.79
2022-08-25T06:15:57.773Z,98887.98
2022-08-25T06:17:02.737Z,98884.61
2022-08-25T06:18:04.698Z,98887.69
2022-08-25T06:19:09.814Z,98889.94
2022-08-25T06:20:22.418Z,98889.77
2022-08-25T06:21:27.517Z,98888.23
2022-08-25T06:22:29.211Z,98890.13
2022-08-25T06:23:30.861Z,98892.02
2022-08-25T06:24:33.297Z,98888.11
2022-08-25T06:25:35.219Z,98891.59
2022-08-25T06:26:37.514Z,98887.39
2022-08-25T06:27:40.124Z,98889.56
2022-08-25T06:28:41.806Z,98887.94
2022-08-25T06:29:43.547Z,98887.27
2022-08-25T06:30:46.145Z,98889.41
2022-08-25T06:31:49.897Z,98891.02
2022-08-25T06:32:52.406Z,98889.10
2022-08-25T06:33:54.090Z,98890.02
2022-08-25T06:34:55.941Z,98892.52
2022-08-25T06:35:58.373Z,98894.03
2022-08-25T06:37:00.075Z,98894.30
2022-08-25T06:38:01.753Z,98893.12
2022-08-25T06:39:04.512Z,98891.99
2022-08-25T06:40:07.471Z,98896.58
2022-08-25T06:41:13.007Z,98897.58
2022-08-25T06:42:14.785Z,98894.02
2022-08-25T06:43:16.514Z,98894.94
2022-08-25T06:44:18.576Z,98890.56
2022-08-25T06:45:21.021Z,98893.77
2022-08-25T06:46:36.116Z,98892.90
2022-08-25T06:47:38.639Z,98892.54
2022-08-25T06:48:40.925Z,98891.98
2022-08-25T06:49:43.968Z,98894.91
2022-08-25T06:50:45.865Z,98894.48
2022-08-25T06:51:48.852Z,98900.65
2022-08-25T06:52:52.200Z,98895.70
2022-08-25T06:53:54.566Z,98896.40
2022-08-25T06:54:56.205Z,98896.97
2022-08-25T06:56:02.257Z,98899.04
2022-08-25T06:57:07.454Z,98901.34
2022-08-25T06:58:11.132Z,98900.95
2022-08-25T06:59:13.298Z,98905.69
2022-08-25T07:00:15.339Z,98905.86
2022-08-25T07:01:22.305Z,98905.54
2022-08-25T07:02:24.076Z,98906.89
2022-08-25T07:03:25.947Z,98906.30
2022-08-25T07:04:27.928Z,98907.64
2022-08-25T07:05:44.183Z,98906.16
2022-08-25T07:06:46.839Z,98906.48
2022-08-25T07:07:49.269Z,98906.59
2022-08-25T07:08:51.304Z,98906.57
2022-08-25T07:09:52.982Z,98907.39
2022-08-25T07:10:55.243Z,98909.42
2022-08-25T07:11:57.103Z,98902.77
2022-08-25T07:12:58.750Z,98907.17
2022-08-25T07:14:02.957Z,98902.27
2022-08-25T07:15:21.198Z,98903.88
2022-08-25T07:16:24.191Z,98903.34
2022-08-25T07:17:32.001Z,98907.48
2022-08-25T07:18:34.940Z,98902.89
2022-08-25T07:19:36.902Z,98906.21
2022-08-25T07:20:41.011Z,98899.31
2022-08-25T07:21:45.412Z,98900.05
2022-08-25T07:22:48.366Z,98898.54
2022-08-25T07:23:50.092Z,98899.81
2022-08-25T07:24:51.770Z,98897.33
2022-08-25T07:25:54.538Z,98900.30
2022-08-25T07:26:56.218Z,98902.41
2022-08-25T07:27:59.006Z,98902.17
2022-08-25T07:29:03.155Z,98904.80
2022-08-25T07:30:07.748Z,98902.52
2022-08-25T07:31:10.796Z,98902.05
2022-08-25T07:32:12.589Z,98901.91
2022-08-25T07:33:14.313Z,98903.52
2022-08-25T07:34:34.593Z,98905.23
2022-08-25T07:35:37.841Z,98905.84
2022-08-25T07:36:39.850Z,98909.55
2022-08-25T07:37:49.275Z,98911.02
2022-08-25T07:38:51.753Z,98910.84
2022-08-25T07:39:53.628Z,98910.18
2022-08-25T07:41:04.553Z,98913.13
2022-08-25T07:42:11.998Z,98910.73
2022-08-25T07:43:14.115Z,98909.73
2022-08-25T07:44:15.849Z,98909.11
2022-08-25T07:45:20.690Z,98908.91
2022-08-25T07:46:22.880Z,98911.21
2022-08-25T07:47:24.622Z,98909.90
2022-08-25T07:48:27.393Z,98907.80
2022-08-25T07:49:35.929Z,98912.17
2022-08-25T07:50:47.686Z,98911.54
2022-08-25T07:52:05.360Z,98909.11
2022-08-25T07:53:10.125Z,98908.45
2022-08-25T07:54:12.302Z,98910.73
2022-08-25T07:55:17.800Z,98909.13
2022-08-25T07:56:20.665Z,98909.40
2022-08-25T07:57:24.568Z,98912.27
2022-08-25T07:58:26.357Z,98909.35
2022-08-25T07:59:28.144Z,98909.58
2022-08-25T08:00:33.395Z,98908.40
2022-08-25T08:01:36.127Z,98911.96
2022-08-25T08:02:41.484Z,98912.39
2022-08-25T08:03:51.232Z,98910.83
2022-08-25T08:04:53.761Z,98907.85
2022-08-25T08:05:56.576Z,98908.84
2022-08-25T08:06:58.229Z,98910.27
2022-08-25T08:08:01.068Z,98911.36
2022-08-25T08:09:03.630Z,98913.49
2022-08-25T08:10:37.019Z,98912.20
2022-08-25T08:11:37.071Z,98911.94
2022-08-25T08:12:39.520Z,98917.30
2022-08-25T08:13:41.575Z,98914.45
2022-08-25T08:14:45.005Z,98919.52
2022-08-25T08:15:48.376Z,98919.52
2022-08-25T08:16:50.144Z,98925.38
2022-08-25T08:17:51.850Z,98922.77
2022-08-25T08:18:54.177Z,98921.98
2022-08-25T08:19:55.890Z,98922.73
2022-08-25T08:20:57.892Z,98924.75
2022-08-25T08:22:02.221Z,98924.97
2022-08-25T08:23:04.349Z,98931.80
2022-08-25T08:24:14.781Z,98928.96
2022-08-25T08:25:27.472Z,98930.70
2022-08-25T08:26:55.292Z,98926.27
2022-08-25T08:27:54.818Z,98925.61
2022-08-25T08:28:56.863Z,98926.31
2022-08-25T08:29:58.669Z,98924.67
2022-08-25T08:31:00.411Z,98926.73
2022-08-25T08:32:03.349Z,98924.92
2022-08-25T08:33:10.203Z,98919.20
2022-08-25T08:34:13.474Z,98916.56
2022-08-25T08:35:17.637Z,98914.33
2022-08-25T08:36:19.518Z,98915.64
2022-08-25T08:37:22.963Z,98916.05
2022-08-25T08:38:27.116Z,98919.20
2022-08-25T08:39:30.421Z,98919.75
2022-08-25T08:41:09.510Z,98916.60
2022-08-25T08:42:19.841Z,98917.98
2022-08-25T08:43:24.984Z,98926.36
2022-08-25T08:44:44.137Z,98923.70
2022-08-25T08:45:53.110Z,98925.55
2022-08-25T08:47:29.849Z,98921.27
2022-08-25T08:49:00.364Z,98919.02
2022-08-25T08:50:28.157Z,98916.48
2022-08-25T08:51:47.821Z,98912.88
2022-08-25T08:52:56.406Z,98913.59
2022-08-25T08:54:15.570Z,98913.15
2022-08-25T08:56:05.818Z,98909.86
2022-08-25T08:57:19.547Z,98910.69
2022-08-25T08:58:26.177Z,98913.17
2022-08-25T08:59:41.838Z,98913.13
2022-08-25T09:00:52.614Z,98912.53
2022-08-25T09:02:06.035Z,98908.48
2022-08-25T09:03:39.928Z,98908.57
2022-08-25T09:05:03.536Z,98906.27
2022-08-25T09:06:20.306Z,98904.89
2022-08-25T09:07:35.697Z,98906.96
2022-08-25T09:08:39.472Z,98906.10
2022-08-25T09:09:46.525Z,98906.25
2022-08-25T09:10:58.545Z,98908.71
2022-08-25T09:12:37.439Z,98908.08
2022-08-25T09:14:30.478Z,98904.32
2022-08-25T09:16:22.412Z,98909.15
2022-08-25T09:18:23.453Z,98905.33
2022-08-25T09:20:05.704Z,98902.80
2022-08-25T09:22:04.682Z,98903.11
2022-08-25T09:23:32.036Z,98903.23
2022-08-25T09:24:51.852Z,98903.13
2022-08-25T09:26:14.793Z,98899.02
2022-08-25T09:27:35.771Z,98896.23
2022-08-25T09:28:51.123Z,98897.45
2022-08-25T09:30:05.337Z,98891.85
2022-08-25T09:31:29.667Z,98891.20
2022-08-25T09:32:38.931Z,98891.13
2022-08-25T09:33:41.601Z,98889.11
2022-08-25T09:34:47.467Z,98892.09
2022-08-25T09:35:53.633Z,98889.48
2022-08-25T09:36:56.359Z,98885.64
2022-08-25T09:38:05.535Z,98882.48
2022-08-25T09:39:07.852Z,98881.20
2022-08-25T09:40:12.075Z,98879.48
2022-08-25T09:41:18.170Z,98880.52
2022-08-25T09:42:23.907Z,98881.70
2022-08-25T09:43:28.721Z,98880.45
2022-08-25T09:44:38.738Z,98877.29
2022-08-25T09:45:48.217Z,98875.64
2022-08-25T09:47:04.835Z,98879.73
2022-08-25T09:48:26.922Z,98877.63
2022-08-25T09:49:39.315Z,98876.50
2022-08-25T09:50:46.618Z,98878.86
2022-08-25T09:51:48.557Z,98875.27
2022-08-25T09:52:54.443Z,98874.75
2022-08-25T09:53:59.723Z,98875.82
2022-08-25T09:55:04.384Z,98874.73
2022-08-25T09:56:07.520Z,98870.67
2022-08-25T09:57:30.186Z,98868.41
2022-08-25T09:58:32.574Z,98870.25
2022-08-25T09:59:37.375Z,98867.45
2022-08-25T10:00:39.086Z,98866.73
2022-08-25T10:01:54.578Z,98865.46
2022-08-25T10:03:22.775Z,98865.14
2022-08-25T10:04:40.081Z,98863.24
2022-08-25T10:06:01.462Z,98861.37
2022-08-25T10:07:22.162Z,98866.23
2022-08-25T10:08:51.799Z,98863.65
2022-08-25T10:10:04.231Z,98861.30
2022-08-25T10:11:12.995Z,98863.33
2022-08-25T10:12:44.716Z,98860.79
2022-08-25T10:14:02.725Z,98858.98
2022-08-25T10:15:33.392Z,98858.42
2022-08-25T10:16:36.104Z,98857.65
2022-08-25T10:17:38.511Z,98856.85
2022-08-25T10:18:41.140Z,98855.17
2022-08-25T10:19:44.579Z,98852.98
2022-08-25T10:21:02.660Z,98850.45
2022-08-25T10:22:12.027Z,98852.69
2022-08-25T10:23:15.058Z,98853.48
2022-08-25T10:24:17.241Z,98853.09
2022-08-25T10:25:31.071Z,98850.91
2022-08-25T10:26:47.942Z,98849.73
2022-08-25T10:28:21.086Z,98845.90
2022-08-25T10:29:28.928Z,98845.38
2022-08-25T10:30:33.476Z,98843.08
2022-08-25T10:31:51.888Z,98841.31
2022-08-25T10:33:11.835Z,98840.23
2022-08-25T10:34:35.839Z,98838.91
2022-08-25T10:35:59.502Z,98840.01
2022-08-25T10:37:26.779Z,98840.39
2022-08-25T10:38:42.929Z,98835.19
2022-08-25T10:39:57.969Z,98836.55
2022-08-25T10:41:07.316Z,98834.82
2022-08-25T10:42:13.099Z,98836.30
2022-08-25T10:43:33.856Z,98835.25
2022-08-25T10:45:23.402Z,98835.22
2022-08-25T10:46:56.619Z,98837.14
2022-08-25T10:48:33.243Z,98838.53
2022-08-25T10:49:47.435Z,98838.94
2022-08-25T10:50:54.406Z,98835.14
2022-08-25T10:52:04.090Z,98831.90
2022-08-25T10:53:46.369Z,98832.45
2022-08-25T10:55:24.460Z,98828.32
2022-08-25T10:56:40.951Z,98827.20
2022-08-25T10:57:55.638Z,98826.17
2022-08-25T10:59:20.457Z,98821.72
2022-08-25T11:00:31.296Z,98824.00
2022-08-25T11:02:13.985Z,98819.09
2022-08-25T11:03:43.782Z,98820.36
2022-08-25T11:05:12.539Z,98820.39
2022-08-25T11:06:26.425Z,98819.52
2022-08-25T11:07:35.677Z,98817.78
2022-08-25T11:08:49.316Z,98818.96
2022-08-25T11:09:57.762Z,98816.63
2022-08-25T11:11:05.869Z,98820.10
2022-08-25T11:12:16.420Z,98819.32
2022-08-25T11:13:46.542Z,98817.75
2022-08-25T11:14:57.142Z,98818.41
2022-08-25T11:16:17.445Z,98815.30
2022-08-25T11:17:51.595Z,98815.23
2022-08-25T11:19:05.475Z,98810.53
2022-08-25T11:20:15.618Z,98814.16
2022-08-25T11:21:37.414Z,98817.34
2022-08-25T11:22:55.978Z,98814.33
2022-08-25T11:24:25.404Z,98811.60
2022-08-25T11:25:38.023Z,98810.54
2022-08-25T11:26:49.773Z,98810.67
2022-08-25T11:28:03.746Z,98807.61
2022-08-25T11:29:17.261Z,98806.00
2022-08-25T11:30:20.134Z,98803.82
2022-08-25T11:31:24.718Z,98802.16
2022-08-25T11:32:26.813Z,98804.42
2022-08-25T11:33:31.036Z,98805.15
2022-08-25T11:34:37.164Z,98806.89
2022-08-25T11:35:53.480Z,98805.17
2022-08-25T11:37:01.151Z,98803.67
2022-08-25T11:38:16.557Z,98808.05
2022-08-25T11:39:59.909Z,98802.89
2022-08-25T11:41:38.838Z,98803.39
2022-08-25T11:43:04.082Z,98802.57
2022-08-25T11:44:50.135Z,98799.27
2022-08-25T11:46:23.640Z,98799.84
2022-08-25T11:47:51.267Z,98798.12
2022-08-25T11:49:14.525Z,98802.60
2022-08-25T11:50:35.352Z,98802.74
2022-08-25T11:51:45.183Z,98797.55
2022-08-25T11:52:54.029Z,98798.77
2022-08-25T11:54:20.826Z,98798.25
2022-08-25T11:55:29.988Z,98797.80
2022-08-25T11:56:40.049Z,98799.02
2022-08-25T11:57:45.106Z,98793.23
2022-08-25T11:58:50.817Z,98795.42
2022-08-25T11:59:52.372Z,98795.67
2022-08-25T12:00:55.854Z,98796.20
2022-08-25T12:01:57.385Z,98794.80
2022-08-25T12:03:01.612Z,98802.73
2022-08-25T12:04:42.236Z,98797.95
2022-08-25T12:06:12.225Z,98793.70
2022-08-25T12:07:24.153Z,98793.82
2022-08-25T12:08:47.982Z,98787.96
2022-08-25T12:09:53.732Z,98787.79
2022-08-25T12:11:04.338Z,98790.08
2022-08-25T12:12:38.315Z,98795.74
2022-08-25T12:13:48.531Z,98790.36
2022-08-25T12:14:51.749Z,98790.42
2022-08-25T12:15:57.433Z,98791.00
2022-08-25T12:17:00.395Z,98791.55
2022-08-25T12:18:45.998Z,98789.15
2022-08-25T12:19:52.704Z,98789.95
2022-08-25T12:20:55.104Z,98787.70
2022-08-25T12:22:03.420Z,98787.95
2022-08-25T12:23:06.943Z,98789.66
2022-08-25T12:24:12.897Z,98787.05
2022-08-25T12:25:34.112Z,98788.36
2022-08-25T12:26:52.628Z,98785.86
2022-08-25T12:28:16.029Z,98779.48
2022-08-25T12:29:41.529Z,98780.74
2022-08-25T12:30:57.200Z,98778.52
2022-08-25T12:32:06.929Z,98777.42
2022-08-25T12:33:23.488Z,98781.52
2022-08-25T12:34:34.090Z,98775.73
2022-08-25T12:35:55.745Z,98777.26
2022-08-25T12:37:06.403Z,98777.14
2022-08-25T12:38:16.890Z,98777.72
2022-08-25T12:39:34.589Z,98779.79
2022-08-25T12:40:43.142Z,98775.29
2022-08-25T12:41:58.315Z,98772.69
2022-08-25T12:43:12.309Z,98777.70
2022-08-25T12:44:35.574Z,98771.61
2022-08-25T12:45:42.321Z,98776.01
2022-08-25T12:46:44.643Z,98771.70
2022-08-25T12:47:49.013Z,98767.91
2022-08-25T12:48:57.817Z,98771.27
2022-08-25T12:50:29.881Z,98771.90
2022-08-25T12:51:48.547Z,98773.04
2022-08-25T12:52:53.476Z,98774.34
2022-08-25T12:54:22.518Z,98772.85
2022-08-25T12:55:27.021Z,98772.54
2022-08-25T12:56:39.053Z,98777.77
2022-08-25T12:57:46.150Z,98774.05
2022-08-25T12:59:02.706Z,98776.09
2022-08-25T13:00:20.257Z,98775.45
2022-08-25T13:01:35.874Z,98777.98
2022-08-25T13:03:09.983Z,98766.42
2022-08-25T13:04:39.086Z,98770.13
2022-08-25T13:06:02.125Z,98772.55
2022-08-25T13:07:29.659Z,98772.21
2022-08-25T13:08:48.063Z,98771.56
2022-08-25T13:09:58.620Z,98765.71
2022-08-25T13:11:04.958Z,98764.30
2022-08-25T13:12:21.950Z,98768.60
2022-08-25T13:13:49.033Z,98765.36
2022-08-25T13:14:57.403Z,98768.30
2022-08-25T13:16:25.715Z,98762.99